Mc Gaheysville, Virginia
Current Conditions -  °F | °C
As of 2:35 PM on Thursday 23 Oct 2014 (Local Time) from KSHD Reporting Station
Clear Clear  
Wind Chill: 64°   Ceiling: Unl
Heat Index: 64°   Visibility: 10mi
Dew Point: 40°   Wind: 17mph
Humidity: 43%   Direction: 350°N
Pressure: 29.97"   Gusts: 24mph
Location:  38.3726°N, 78.7456°W
Report Text: KSHD 231835Z AUTO 35015G21KT 10SM CLR 18/05 A2997 RMK AO2 T01750046
Loading
Personal Weather Stations






























Interactive Weather Map
Tropical Storm Tracking
New forecast layout! Learn more

10-Day Weather Forecast

Advertisements
Track Severe Weather on mobile